Time;durP1;ratioP1;P1;durP2;ratioP2;P2;SDS_P1;SDS_P2;PMS_P1;PMS_P2;Temp;Humidity;BMP_temperature;BMP_pressure;BME280_temperature;BME280_humidity;BME280_pressure;Samples;Min_cycle;Max_cycle;Signal;HPM_P1;HPM_P2
2022/04/21 07:45:49;;;;;;;12.70;7.70;;;;;;;;;;6293953;22;20246;-89
2022/04/21 07:55:47;;;;;;;15.30;7.90;;;;;;;;;;6323002;22;20160;-90
2022/04/21 07:58:53;;;;;;;15.43;7.70;;;;;;;;;;6324687;22;20187;-90
2022/04/21 08:02:01;;;;;;;15.65;8.35;;;;;;;;;;6306350;22;20161;-91
2022/04/21 08:05:07;;;;;;;16.73;8.43;;;;;;;;;;6327034;22;20219;-89
2022/04/21 08:08:13;;;;;;;14.90;8.07;;;;;;;;;;6307790;22;20269;-89
2022/04/21 08:11:18;;;;;;;15.88;7.75;;;;;;;;;;6329623;22;20188;-91
2022/04/21 08:14:24;;;;;;;16.10;7.78;;;;;;;;;;6310623;22;20216;-90
2022/04/21 08:20:58;;;;;;;16.92;8.05;;;;;;;;;;6309427;22;20214;-91
2022/04/21 08:32:33;;;;;;;15.10;8.10;;;;;;;;;;6329496;22;20237;-90
2022/04/21 08:34:20;;;;;;;24.58;9.52;;;;;;;;;;6327693;22;20203;-92
2022/04/21 08:37:27;;;;;;;26.33;9.13;;;;;;;;;;6328077;22;20172;-91
2022/04/21 08:40:38;;;;;;;16.20;9.10;;;;;;;;;;6310005;22;20165;-90
2022/04/21 08:43:43;;;;;;;21.38;8.98;;;;;;;;;;6326216;22;20229;-92
2022/04/21 09:22:11;;;;;;;13.70;8.25;;;;;;;;;;6239454;22;20606;-90
2022/04/21 09:25:24;;;;;;;14.30;7.65;;;;;;;;;;6279541;22;20162;-89
2022/04/21 09:28:31;;;;;;;11.55;7.47;;;;;;;;;;6278250;22;20205;-91
2022/04/21 09:31:42;;;;;;;15.10;7.22;;;;;;;;;;6279535;22;20149;-91
2022/04/21 09:34:50;;;;;;;11.98;6.97;;;;;;;;;;6280343;22;20146;-89
2022/04/21 09:48:38;;;;;;;12.30;6.22;;;;;;;;;;6277977;22;20193;-90
2022/04/21 09:51:44;;;;;;;10.38;6.10;;;;;;;;;;6276757;22;20161;-90
2022/04/21 09:54:50;;;;;;;9.80;5.25;;;;;;;;;;6276149;22;20150;-88
2022/04/21 09:58:06;;;;;;;10.43;5.85;;;;;;;;;;6280428;22;20211;-91
2022/04/21 10:01:14;;;;;;;9.63;5.03;;;;;;;;;;6280815;22;20173;-89
2022/04/21 10:04:19;;;;;;;10.43;5.47;;;;;;;;;;6279422;22;20174;-91
2022/04/21 10:07:25;;;;;;;10.52;4.97;;;;;;;;;;6278832;22;20253;-89
2022/04/21 10:10:31;;;;;;;11.38;7.03;;;;;;;;;;6282582;22;20169;-91
2022/04/21 10:13:36;;;;;;;10.18;6.45;;;;;;;;;;6278661;22;20146;-92
2022/04/21 10:16:57;;;;;;;9.98;5.88;;;;;;;;;;6280089;22;20187;-91
2022/04/21 10:20:07;;;;;;;12.88;6.57;;;;;;;;;;6279282;22;20209;-91
2022/04/21 10:23:13;;;;;;;10.05;6.15;;;;;;;;;;6263439;22;20255;-91
2022/04/21 10:26:35;;;;;;;10.60;5.97;;;;;;;;;;6247163;22;20154;-92
2022/04/21 10:29:57;;;;;;;13.77;7.70;;;;;;;;;;6248571;22;20181;-91
2022/04/21 10:33:02;;;;;;;11.65;6.82;;;;;;;;;;6247987;23;20190;-91
2022/04/21 10:36:10;;;;;;;12.98;6.18;;;;;;;;;;6247718;23;20167;-90
2022/04/21 10:39:27;;;;;;;11.88;6.53;;;;;;;;;;6248321;22;20166;-91
2022/04/21 11:03:07;;;;;;;10.48;6.70;;;;;;;;;;6319500;22;20202;-90
2022/04/21 11:06:43;;;;;;;12.30;7.20;;;;;;;;;;6317838;22;20287;-87
2022/04/21 11:09:55;;;;;;;10.77;6.97;;;;;;;;;;6253102;22;20187;-89
2022/04/21 11:19:58;;;;;;;12.13;7.05;;;;;;;;;;6269463;22;20154;-91
2022/04/21 11:23:05;;;;;;;12.43;7.22;;;;;;;;;;6246568;23;20231;-90
2022/04/21 11:26:10;;;;;;;13.55;7.72;;;;;;;;;;6249052;22;20178;-91
2022/04/21 11:29:20;;;;;;;21.05;7.50;;;;;;;;;;6249125;22;20181;-91
2022/04/21 11:32:26;;;;;;;13.05;7.80;;;;;;;;;;6247017;22;20159;-92
2022/04/21 11:35:41;;;;;;;12.30;7.50;;;;;;;;;;6247018;22;20217;-91
2022/04/21 11:38:52;;;;;;;10.40;7.00;;;;;;;;;;6249007;23;20175;-89
2022/04/21 11:41:58;;;;;;;10.80;6.57;;;;;;;;;;6246676;22;20209;-92
2022/04/21 11:48:23;;;;;;;12.18;6.80;;;;;;;;;;6252328;23;20206;-91
2022/04/21 11:51:34;;;;;;;10.75;6.50;;;;;;;;;;6248846;23;20171;-92
2022/04/21 11:54:47;;;;;;;9.05;5.63;;;;;;;;;;6247538;23;20166;-91
2022/04/21 11:57:56;;;;;;;5.95;4.30;;;;;;;;;;6247793;22;20173;-92
2022/04/21 12:40:09;;;;;;;6.97;4.20;;;;;;;;;;6304166;22;20217;-91
2022/04/21 12:43:15;;;;;;;7.38;4.28;;;;;;;;;;6282991;22;20231;-91
2022/04/21 12:46:23;;;;;;;7.43;4.32;;;;;;;;;;6328415;22;20169;-92
2022/04/21 12:49:49;;;;;;;7.35;3.95;;;;;;;;;;6327332;22;20278;-91
2022/04/21 12:52:54;;;;;;;6.45;3.83;;;;;;;;;;6326835;22;20165;-92
2022/04/21 12:56:11;;;;;;;8.90;4.00;;;;;;;;;;6326454;22;20161;-91
2022/04/21 12:59:17;;;;;;;5.25;3.65;;;;;;;;;;6306882;22;20169;-91
2022/04/21 13:02:22;;;;;;;5.70;3.80;;;;;;;;;;6328988;22;20172;-91
2022/04/21 13:05:31;;;;;;;4.50;3.65;;;;;;;;;;6309523;22;20165;-92
2022/04/21 13:08:39;;;;;;;5.82;3.20;;;;;;;;;;6310706;22;20278;-91
2022/04/21 13:11:46;;;;;;;5.43;3.72;;;;;;;;;;6328868;22;20639;-91
2022/04/21 13:14:54;;;;;;;7.60;4.40;;;;;;;;;;6309853;22;20164;-91
2022/04/21 13:17:59;;;;;;;6.50;3.78;;;;;;;;;;6327431;22;20168;-91
2022/04/21 13:24:29;;;;;;;9.80;4.93;;;;;;;;;;6328009;22;20169;-90
2022/04/21 13:27:35;;;;;;;8.25;4.55;;;;;;;;;;6325896;22;20173;-92
2022/04/21 13:30:41;;;;;;;6.78;4.68;;;;;;;;;;6325763;22;20208;-90
2022/04/21 14:21:08;;;;;;;9.40;5.22;;;;;;;;;;6310709;22;20280;-91
2022/04/21 14:24:14;;;;;;;9.27;5.47;;;;;;;;;;6327139;22;20172;-90
2022/04/21 14:27:21;;;;;;;7.65;4.72;;;;;;;;;;6327659;22;20165;-89
2022/04/21 14:30:30;;;;;;;5.60;3.78;;;;;;;;;;6326478;22;20199;-90
2022/04/21 14:33:37;;;;;;;6.28;3.97;;;;;;;;;;6309442;22;20161;-89
2022/04/21 14:36:42;;;;;;;6.70;3.53;;;;;;;;;;6326259;22;20180;-91
2022/04/21 14:46:39;;;;;;;6.97;3.50;;;;;;;;;;6326381;22;20169;-91
2022/04/21 14:49:49;;;;;;;6.30;3.88;;;;;;;;;;6326367;22;20211;-91
2022/04/21 14:52:54;;;;;;;7.03;4.50;;;;;;;;;;6329499;22;20177;-92
2022/04/21 14:56:00;;;;;;;6.15;3.88;;;;;;;;;;6311354;22;20165;-92
2022/04/21 16:13:09;;;;;;;8.63;3.63;;;;;;;;;;6291482;22;20177;-91
2022/04/21 16:16:15;;;;;;;5.50;3.40;;;;;;;;;;6277000;22;20217;-92
2022/04/21 16:19:21;;;;;;;7.35;3.90;;;;;;;;;;6276371;22;20165;-93
2022/04/21 16:22:27;;;;;;;7.78;3.72;;;;;;;;;;6277010;22;20629;-90
2022/04/21 16:25:32;;;;;;;11.95;4.15;;;;;;;;;;6276953;22;20154;-89
2022/04/21 16:28:44;;;;;;;7.63;3.50;;;;;;;;;;6278583;22;20224;-93
2022/04/21 16:31:50;;;;;;;6.80;3.50;;;;;;;;;;6277372;22;20209;-91
2022/04/21 16:34:55;;;;;;;6.13;3.60;;;;;;;;;;6276596;22;20204;-91
2022/04/21 16:44:49;;;;;;;7.80;4.00;;;;;;;;;;6281838;22;20277;-91
2022/04/21 16:51:14;;;;;;;6.60;4.20;;;;;;;;;;6295291;22;20191;-92
2022/04/21 16:57:39;;;;;;;7.32;4.47;;;;;;;;;;6266491;22;20219;-91
2022/04/21 17:30:49;;;;;;;6.45;3.55;;;;;;;;;;5996437;22;5832143;-90
2022/04/21 17:33:55;;;;;;;5.50;3.45;;;;;;;;;;6285728;22;20203;-92
2022/04/21 17:37:01;;;;;;;5.78;3.25;;;;;;;;;;6285356;22;20169;-91
2022/04/21 17:43:27;;;;;;;5.85;3.65;;;;;;;;;;6286181;22;20193;-91
2022/04/21 17:46:37;;;;;;;5.93;3.60;;;;;;;;;;6286607;22;20233;-92
2022/04/21 17:49:44;;;;;;;7.63;4.13;;;;;;;;;;6286624;22;20166;-93
2022/04/21 17:52:49;;;;;;;6.72;3.80;;;;;;;;;;6286356;22;20166;-91
2022/04/21 17:55:54;;;;;;;6.18;4.07;;;;;;;;;;6286135;22;20175;-90
2022/04/21 17:59:01;;;;;;;5.78;3.63;;;;;;;;;;6284866;22;20177;-91
2022/04/21 18:02:10;;;;;;;6.72;3.28;;;;;;;;;;6285910;22;20190;-89
2022/04/21 18:05:16;;;;;;;10.13;3.92;;;;;;;;;;6287309;22;20150;-89
2022/04/21 18:08:21;;;;;;;8.18;4.15;;;;;;;;;;6288069;22;20185;-90
2022/04/21 22:26:40;;;;;;;16.85;7.43;;;;;;;;;;6223112;22;20219;-89
2022/04/21 22:29:46;;;;;;;12.13;6.50;;;;;;;;;;6246494;22;20162;-91
2022/04/21 22:32:52;;;;;;;13.75;7.18;;;;;;;;;;6245153;23;20171;-91
2022/04/21 22:35:57;;;;;;;12.35;6.97;;;;;;;;;;6246012;22;20162;-91
2022/04/21 22:39:02;;;;;;;16.83;8.10;;;;;;;;;;6245378;23;20178;-90
2022/04/21 22:42:09;;;;;;;13.68;7.20;;;;;;;;;;6243584;23;20494;-91
2022/04/21 22:45:15;;;;;;;12.82;7.30;;;;;;;;;;6245481;22;20147;-90
2022/04/21 22:48:20;;;;;;;12.55;8.10;;;;;;;;;;6245627;22;20162;-91
2022/04/21 22:51:25;;;;;;;20.42;8.57;;;;;;;;;;6246315;22;20194;-90
2022/04/21 22:54:30;;;;;;;15.00;9.00;;;;;;;;;;6248215;23;20170;-91
2022/04/21 22:57:38;;;;;;;17.83;9.10;;;;;;;;;;6247319;23;20231;-90
2022/04/21 23:00:43;;;;;;;18.02;9.68;;;;;;;;;;6247103;23;20219;-88
2022/04/21 23:03:48;;;;;;;14.95;8.55;;;;;;;;;;6244906;22;20235;-90
2022/04/21 23:06:54;;;;;;;13.60;8.07;;;;;;;;;;6247149;22;20154;-88
2022/04/21 23:13:31;;;;;;;17.08;8.90;;;;;;;;;;6245412;22;20171;-91
2022/04/21 23:16:36;;;;;;;15.55;9.00;;;;;;;;;;6244474;23;20242;-91
2022/04/21 23:19:49;;;;;;;18.67;9.35;;;;;;;;;;6243909;22;20166;-91
2022/04/21 23:22:55;;;;;;;14.87;9.07;;;;;;;;;;6244748;22;20179;-91
2022/04/21 23:26:00;;;;;;;16.73;8.93;;;;;;;;;;6241270;23;20505;-92
2022/04/21 23:29:07;;;;;;;16.33;8.60;;;;;;;;;;6243361;22;20186;-91
2022/04/21 23:32:12;;;;;;;15.80;8.77;;;;;;;;;;6242346;22;20198;-91
2022/04/21 23:35:18;;;;;;;16.25;8.48;;;;;;;;;;6243543;23;20231;-91
2022/04/21 23:38:29;;;;;;;21.80;8.95;;;;;;;;;;6244523;23;20189;-90
2022/04/21 23:41:35;;;;;;;16.88;8.65;;;;;;;;;;6243037;23;20657;-89
2022/04/21 23:44:42;;;;;;;17.30;8.07;;;;;;;;;;6243916;23;20262;-91
2022/04/21 23:47:48;;;;;;;17.83;8.53;;;;;;;;;;6244203;23;20199;-91
2022/04/21 23:50:54;;;;;;;12.95;7.43;;;;;;;;;;6242917;22;20537;-91
2022/04/21 23:53:59;;;;;;;12.60;7.63;;;;;;;;;;6242894;22;20477;-90
2022/04/21 23:57:05;;;;;;;17.92;8.77;;;;;;;;;;6242563;23;20489;-90
